Time;durP1;ratioP1;P1;durP2;ratioP2;P2;SDS_P1;SDS_P2;PMS_P1;PMS_P2;Temp;Humidity;BMP_temperature;BMP_pressure;BME280_temperature;BME280_humidity;BME280_pressure;Samples;Min_cycle;Max_cycle;Signal;HPM_P1;HPM_P2
2024/01/07 00:00:58;;;;;;;;;;;;;;;4.37;75.16;102087.28;7370740;19;19943;-66
2024/01/07 00:03:24;;;;;;;;;;;;;;;4.34;75.46;102084.59;7370025;19;19918;-66
2024/01/07 00:05:49;;;;;;;;;;;;;;;4.33;75.59;102092.31;7374102;19;19919;-65
2024/01/07 00:08:14;;;;;;;;;;;;;;;4.31;75.53;102086.22;7374603;19;20345;-65
2024/01/07 00:10:39;;;;;;;;;;;;;;;4.29;75.20;102093.94;7377873;19;19919;-65
2024/01/07 00:13:05;;;;;;;;;;;;;;;4.29;75.61;102095.66;7370584;19;20006;-64
2024/01/07 00:15:31;;;;;;;;;;;;;;;4.26;75.22;102091.31;7374074;19;20666;-65
2024/01/07 00:17:56;;;;;;;;;;;;;;;4.24;75.43;102100.72;7369402;19;19925;-66
2024/01/07 00:20:21;;;;;;;;;;;;;;;4.24;75.65;102094.66;7370892;19;19915;-65
2024/01/07 00:22:47;;;;;;;;;;;;;;;4.23;75.24;102098.09;7366236;19;19915;-65
2024/01/07 00:25:12;;;;;;;;;;;;;;;4.23;75.86;102111.91;7368280;19;19943;-64
2024/01/07 00:27:37;;;;;;;;;;;;;;;4.22;75.79;102115.31;7368845;19;19923;-65
2024/01/07 00:30:03;;;;;;;;;;;;;;;4.22;75.92;102117.03;7372863;19;19915;-66
2024/01/07 00:32:28;;;;;;;;;;;;;;;4.21;75.61;102110.09;7367849;19;19947;-66
2024/01/07 00:34:53;;;;;;;;;;;;;;;4.20;75.66;102111.81;7372329;19;19926;-65
2024/01/07 00:37:18;;;;;;;;;;;;;;;4.20;75.90;102114.38;7370571;19;19931;-65
2024/01/07 00:39:45;;;;;;;;;;;;;;;4.19;76.00;102116.94;7373095;19;20646;-65
2024/01/07 00:42:11;;;;;;;;;;;;;;;4.18;76.15;102118.66;7368184;19;19923;-64
2024/01/07 00:44:37;;;;;;;;;;;;;;;4.17;75.58;102114.31;7371041;19;19922;-65
2024/01/07 00:47:02;;;;;;;;;;;;;;;4.16;76.02;102120.34;7371212;19;20984;-66
2024/01/07 00:49:27;;;;;;;;;;;;;;;4.14;75.61;102119.41;7372485;19;19923;-66
2024/01/07 00:51:53;;;;;;;;;;;;;;;4.12;75.58;102116.78;7372135;19;19923;-64
2024/01/07 00:54:18;;;;;;;;;;;;;;;4.10;75.94;102118.44;7378390;19;20338;-66
2024/01/07 00:56:43;;;;;;;;;;;;;;;4.06;75.98;102119.22;7375645;19;19998;-65
2024/01/07 00:59:08;;;;;;;;;;;;;;;4.08;75.87;102124.41;7368124;19;19923;-66
2024/01/07 01:01:34;;;;;;;;;;;;;;;4.06;75.72;102123.50;7343144;19;19948;-65
2024/01/07 01:03:59;;;;;;;;;;;;;;;4.05;75.64;102124.31;7369343;19;19936;-65
2024/01/07 01:06:24;;;;;;;;;;;;;;;4.03;75.74;102131.19;7372916;19;19915;-65
2024/01/07 01:08:50;;;;;;;;;;;;;;;4.01;76.01;102123.38;7367815;19;19918;-64
2024/01/07 01:11:15;;;;;;;;;;;;;;;3.99;75.85;102124.16;7369269;19;19922;-65
2024/01/07 01:13:40;;;;;;;;;;;;;;;3.97;75.65;102136.19;7370043;19;19929;-66
2024/01/07 01:16:05;;;;;;;;;;;;;;;3.95;75.84;102128.38;7372032;19;19926;-66
2024/01/07 01:18:31;;;;;;;;;;;;;;;3.93;75.73;102129.19;7371501;19;19915;-64
2024/01/07 01:20:56;;;;;;;;;;;;;;;3.90;75.95;102130.84;7373579;19;19922;-65
2024/01/07 01:23:21;;;;;;;;;;;;;;;3.89;75.93;102136.84;7371434;19;19983;-65
2024/01/07 01:25:47;;;;;;;;;;;;;;;3.87;75.73;102135.94;7372455;19;19926;-64
2024/01/07 01:28:12;;;;;;;;;;;;;;;3.86;75.62;102144.53;7373037;19;19911;-65
2024/01/07 01:30:37;;;;;;;;;;;;;;;3.85;75.65;102142.78;7375543;19;20004;-64
2024/01/07 01:33:02;;;;;;;;;;;;;;;3.83;76.07;102143.53;7369038;19;20526;-66
2024/01/07 01:35:28;;;;;;;;;;;;;;;3.82;75.91;102145.25;7373832;19;19922;-65
2024/01/07 01:37:54;;;;;;;;;;;;;;;3.80;75.94;102141.78;7380207;19;19915;-65
2024/01/07 01:40:19;;;;;;;;;;;;;;;3.80;76.17;102138.28;7370279;19;19978;-65
2024/01/07 01:42:45;;;;;;;;;;;;;;;3.79;75.83;102142.56;7368028;19;20683;-65
2024/01/07 01:45:11;;;;;;;;;;;;;;;3.71;75.79;102133.75;7369374;19;20992;-65
2024/01/07 01:47:36;;;;;;;;;;;;;;;3.75;76.16;102140.75;7362119;19;19910;-66
2024/01/07 01:50:02;;;;;;;;;;;;;;;3.74;76.13;102144.16;7371796;19;19941;-64
2024/01/07 01:52:27;;;;;;;;;;;;;;;3.73;75.74;102142.41;7372955;19;19914;-65
2024/01/07 01:54:52;;;;;;;;;;;;;;;3.72;76.08;102145.84;7371340;19;20356;-66
2024/01/07 01:57:20;;;;;;;;;;;;;;;3.70;75.83;102150.09;7366290;19;19914;-64
2024/01/07 01:59:45;;;;;;;;;;;;;;;3.68;76.14;102143.97;7370583;19;20802;-65
2024/01/07 02:02:11;;;;;;;;;;;;;;;3.68;75.80;102156.03;7370694;19;19911;-65
2024/01/07 02:04:36;;;;;;;;;;;;;;;3.66;75.82;102156.00;7368240;19;20529;-65
2024/01/07 02:07:02;;;;;;;;;;;;;;;3.65;76.17;102156.84;7371755;19;19926;-65
2024/01/07 02:09:27;;;;;;;;;;;;;;;3.62;76.13;102154.16;7374694;19;19990;-66
2024/01/07 02:12:02;;;;;;;;;;;;;;;3.61;75.83;102157.56;7377582;19;19915;-65
2024/01/07 02:14:27;;;;;;;;;;;;;;;3.58;75.95;102155.75;7374522;19;20414;-66
2024/01/07 02:16:52;;;;;;;;;;;;;;;3.57;75.99;102160.88;7375438;19;19911;-65
2024/01/07 02:19:19;;;;;;;;;;;;;;;3.55;76.21;102166.03;7368136;19;19930;-65
2024/01/07 02:21:44;;;;;;;;;;;;;;;3.54;76.27;102165.94;7370602;19;19951;-65
2024/01/07 02:24:14;;;;;;;;;;;;;;;3.52;75.82;102175.38;7371056;19;19918;-65
2024/01/07 02:26:40;;;;;;;;;;;;;;;3.50;76.03;102177.03;7367161;19;20679;-66
2024/01/07 02:29:05;;;;;;;;;;;;;;;3.49;75.81;102181.31;7367914;19;19915;-65
2024/01/07 02:31:30;;;;;;;;;;;;;;;3.47;76.05;102180.41;7370258;19;20309;-65
2024/01/07 02:33:55;;;;;;;;;;;;;;;3.45;76.02;102182.06;7373537;19;20470;-65
2024/01/07 02:36:21;;;;;;;;;;;;;;;3.44;76.09;102184.59;7367129;19;19911;-66
2024/01/07 02:38:46;;;;;;;;;;;;;;;3.43;76.00;102188.00;7368474;19;20288;-66
2024/01/07 02:41:11;;;;;;;;;;;;;;;3.41;76.25;102184.50;7369046;19;19939;-66
2024/01/07 02:43:38;;;;;;;;;;;;;;;3.40;75.99;102188.81;7368919;19;19923;-64
2024/01/07 02:46:03;;;;;;;;;;;;;;;3.38;76.05;102188.72;7371723;19;19926;-65
2024/01/07 02:48:28;;;;;;;;;;;;;;;3.37;75.91;102194.72;7375798;19;19923;-65
2024/01/07 02:50:54;;;;;;;;;;;;;;;3.36;76.24;102195.56;7376253;19;20328;-65
2024/01/07 02:53:19;;;;;;;;;;;;;;;3.33;76.24;102187.72;7370005;19;20287;-65
2024/01/07 02:55:44;;;;;;;;;;;;;;;3.33;75.98;102192.00;7364909;19;19914;-65
2024/01/07 02:58:09;;;;;;;;;;;;;;;3.33;76.40;102195.47;7363877;19;20335;-66
2024/01/07 03:00:35;;;;;;;;;;;;;;;3.30;76.43;102192.81;7367600;19;19943;-65
2024/01/07 03:03:00;;;;;;;;;;;;;;;3.29;76.08;102193.59;7365538;19;19938;-64
2024/01/07 03:05:25;;;;;;;;;;;;;;;3.26;76.18;102196.13;7368351;19;19928;-65
2024/01/07 03:07:50;;;;;;;;;;;;;;;3.25;75.96;102193.50;7368934;19;19922;-65
2024/01/07 03:10:16;;;;;;;;;;;;;;;3.22;76.12;102194.25;7366298;19;19911;-66
2024/01/07 03:12:41;;;;;;;;;;;;;;;3.20;76.04;102198.50;7362547;19;19953;-65
2024/01/07 03:15:08;;;;;;;;;;;;;;;3.18;76.00;102201.84;7361803;19;20235;-65
2024/01/07 03:17:34;;;;;;;;;;;;;;;3.15;75.75;102197.50;7371592;19;19957;-64
2024/01/07 03:19:59;;;;;;;;;;;;;;;3.14;75.82;102206.03;7370602;19;19915;-66
2024/01/07 03:22:24;;;;;;;;;;;;;;;3.11;75.94;102206.84;7368518;19;19930;-65
2024/01/07 03:24:50;;;;;;;;;;;;;;;3.10;75.95;102206.78;7367380;19;20583;-65
2024/01/07 03:27:15;;;;;;;;;;;;;;;3.07;75.86;102207.56;7371887;19;20384;-65
2024/01/07 03:29:41;;;;;;;;;;;;;;;3.06;75.82;102202.34;7374076;19;19986;-64
2024/01/07 03:32:06;;;;;;;;;;;;;;;3.02;76.15;102206.53;7370207;19;21625;-66
2024/01/07 03:34:31;;;;;;;;;;;;;;;3.01;76.22;102206.50;7368114;19;19977;-65
2024/01/07 03:36:57;;;;;;;;;;;;;;;2.99;76.04;102206.44;7367579;19;19927;-66
2024/01/07 03:39:22;;;;;;;;;;;;;;;2.97;76.29;102208.09;7369495;19;19915;-65
2024/01/07 03:41:48;;;;;;;;;;;;;;;2.95;76.12;102209.75;7363271;19;20320;-65
2024/01/07 03:44:13;;;;;;;;;;;;;;;2.94;75.87;102213.16;7365451;19;19990;-66
2024/01/07 03:46:38;;;;;;;;;;;;;;;2.92;75.98;102204.47;7362557;19;19923;-66
2024/01/07 03:49:03;;;;;;;;;;;;;;;2.91;75.82;102222.50;7364324;19;19918;-65
2024/01/07 03:51:29;;;;;;;;;;;;;;;2.89;76.30;102218.97;7362930;19;20367;-66
2024/01/07 03:53:54;;;;;;;;;;;;;;;2.89;75.98;102218.97;7363089;19;20295;-65
2024/01/07 03:56:19;;;;;;;;;;;;;;;2.87;76.24;102224.09;7363207;19;19938;-65
2024/01/07 03:58:44;;;;;;;;;;;;;;;2.84;76.02;102222.31;7366345;19;19926;-65
2024/01/07 04:01:10;;;;;;;;;;;;;;;2.83;76.21;102228.25;7359777;19;20311;-65
2024/01/07 04:03:35;;;;;;;;;;;;;;;2.82;76.00;102229.09;7368767;19;19914;-65
2024/01/07 04:06:00;;;;;;;;;;;;;;;2.79;76.25;102229.00;7365822;19;20375;-66
2024/01/07 04:08:26;;;;;;;;;;;;;;;2.79;76.29;102238.47;7362087;19;19971;-65
2024/01/07 04:10:51;;;;;;;;;;;;;;;2.78;76.35;102234.97;7368454;19;19915;-66
2024/01/07 04:13:16;;;;;;;;;;;;;;;2.77;76.44;102240.97;7368102;19;19927;-65
2024/01/07 04:15:41;;;;;;;;;;;;;;;2.75;76.33;102237.47;7363889;19;20007;-65
2024/01/07 04:18:07;;;;;;;;;;;;;;;2.75;76.50;102236.59;7339858;19;20472;-65
2024/01/07 04:20:32;;;;;;;;;;;;;;;2.73;76.55;102244.25;7360349;19;19937;-67
2024/01/07 04:22:57;;;;;;;;;;;;;;;2.73;76.26;102241.69;7363274;19;19938;-65
2024/01/07 04:25:23;;;;;;;;;;;;;;;2.72;76.19;102246.78;7359282;19;19923;-65
2024/01/07 04:27:48;;;;;;;;;;;;;;;2.70;76.10;102249.31;7365016;19;19930;-65
2024/01/07 04:30:14;;;;;;;;;;;;;;;2.69;76.22;102250.16;7365651;19;19915;-64
2024/01/07 04:32:39;;;;;;;;;;;;;;;2.68;76.30;102256.13;7361470;19;19933;-66
2024/01/07 04:35:06;;;;;;;;;;;;;;;2.67;76.17;102254.38;7364472;19;19915;-65
2024/01/07 04:37:31;;;;;;;;;;;;;;;2.66;76.54;102254.31;7370111;19;19926;-65
2024/01/07 04:39:56;;;;;;;;;;;;;;;2.64;76.60;102259.44;7376845;19;19919;-64
2024/01/07 04:42:21;;;;;;;;;;;;;;;2.62;76.63;102253.34;7372435;19;19914;-65
2024/01/07 04:44:47;;;;;;;;;;;;;;;2.60;76.33;102257.56;7372409;19;19911;-65
2024/01/07 04:47:29;;;;;;;;;;;;;;;2.59;76.48;102253.25;7372456;19;20629;-65
2024/01/07 04:49:54;;;;;;;;;;;;;;;2.58;76.34;102259.19;7371702;19;19927;-65
2024/01/07 04:52:19;;;;;;;;;;;;;;;2.58;76.34;102264.34;7367632;19;19947;-66
2024/01/07 04:54:45;;;;;;;;;;;;;;;2.56;76.56;102260.88;7372736;19;19923;-65
2024/01/07 04:57:10;;;;;;;;;;;;;;;2.54;76.33;102257.38;7371812;19;19914;-65
2024/01/07 04:59:35;;;;;;;;;;;;;;;2.52;76.24;102264.16;7370698;19;19918;-66
2024/01/07 05:02:01;;;;;;;;;;;;;;;2.52;76.37;102264.16;7372906;19;19950;-65
2024/01/07 05:04:26;;;;;;;;;;;;;;;2.50;76.16;102268.38;7368555;19;20365;-64
2024/01/07 05:06:51;;;;;;;;;;;;;;;2.49;76.40;102267.50;7372242;19;19907;-65
2024/01/07 05:09:17;;;;;;;;;;;;;;;2.48;76.65;102267.44;7367447;19;20039;-65
2024/01/07 05:11:42;;;;;;;;;;;;;;;2.44;76.43;102261.31;7372649;19;19918;-65
2024/01/07 05:14:07;;;;;;;;;;;;;;;2.46;76.45;102269.09;7371855;19;19919;-65
2024/01/07 05:16:33;;;;;;;;;;;;;;;2.44;76.32;102257.88;7371843;19;19929;-65
2024/01/07 05:18:58;;;;;;;;;;;;;;;2.44;76.37;102270.75;7363522;19;20343;-65
2024/01/07 05:21:23;;;;;;;;;;;;;;;2.45;76.46;102272.50;7368210;19;20297;-66
2024/01/07 05:23:48;;;;;;;;;;;;;;;2.43;76.63;102269.84;7370431;19;19919;-65
2024/01/07 05:26:14;;;;;;;;;;;;;;;2.43;76.50;102275.00;7373189;19;20269;-65
2024/01/07 05:28:39;;;;;;;;;;;;;;;2.43;76.85;102277.59;7371828;19;19923;-66
2024/01/07 05:31:04;;;;;;;;;;;;;;;2.43;76.70;102279.28;7375677;19;19915;-66
2024/01/07 05:33:29;;;;;;;;;;;;;;;2.42;76.97;102277.53;7367398;19;19922;-66
2024/01/07 05:35:55;;;;;;;;;;;;;;;2.41;76.57;102279.25;7370821;19;19938;-65
2024/01/07 05:38:20;;;;;;;;;;;;;;;2.40;76.97;102284.34;7368529;19;19926;-65
2024/01/07 05:40:45;;;;;;;;;;;;;;;2.40;76.71;102295.53;7371586;19;19990;-65
2024/01/07 05:43:10;;;;;;;;;;;;;;;2.39;76.62;102286.06;7368821;19;19935;-66
2024/01/07 05:45:36;;;;;;;;;;;;;;;2.39;77.02;102292.91;7369850;19;20300;-65
2024/01/07 05:48:01;;;;;;;;;;;;;;;2.37;76.54;102290.25;7368809;19;19919;-66
2024/01/07 05:50:26;;;;;;;;;;;;;;;2.37;76.63;102298.00;7374617;19;19932;-65
2024/01/07 05:52:51;;;;;;;;;;;;;;;2.37;77.10;102299.69;7367282;19;19915;-65
2024/01/07 05:55:17;;;;;;;;;;;;;;;2.37;77.06;102289.38;7368537;19;19923;-65
2024/01/07 05:57:43;;;;;;;;;;;;;;;2.37;76.73;102299.69;7366949;19;20693;-65
2024/01/07 06:00:08;;;;;;;;;;;;;;;2.37;76.83;102299.69;7358803;19;19915;-65
2024/01/07 06:02:34;;;;;;;;;;;;;;;2.36;76.89;102308.25;7360088;19;19991;-65
2024/01/07 06:05:00;;;;;;;;;;;;;;;2.36;76.63;102308.25;7368439;19;19918;-65
2024/01/07 06:07:25;;;;;;;;;;;;;;;2.34;76.99;102316.81;7369821;19;19938;-65
2024/01/07 06:09:51;;;;;;;;;;;;;;;2.33;77.12;102309.91;7366933;19;19911;-65
2024/01/07 06:12:16;;;;;;;;;;;;;;;2.33;76.97;102320.22;7367160;19;19915;-66
2024/01/07 06:14:41;;;;;;;;;;;;;;;2.32;77.12;102320.16;7369948;19;19922;-65
2024/01/07 06:17:06;;;;;;;;;;;;;;;2.33;76.71;102320.22;7371735;19;19919;-65
2024/01/07 06:19:32;;;;;;;;;;;;;;;2.31;76.92;102315.81;7364336;19;19910;-65
2024/01/07 06:21:57;;;;;;;;;;;;;;;2.30;76.94;102329.53;7367427;19;19925;-66
2024/01/07 06:24:22;;;;;;;;;;;;;;;2.29;76.99;102332.94;7365365;19;19919;-65
2024/01/07 06:26:47;;;;;;;;;;;;;;;2.27;76.78;102330.28;7371331;19;19919;-65
2024/01/07 06:29:13;;;;;;;;;;;;;;;2.26;76.77;102327.66;7369901;19;19938;-64
2024/01/07 06:31:45;;;;;;;;;;;;;;;2.27;76.97;102337.13;7368736;19;19918;-65
2024/01/07 06:34:13;;;;;;;;;;;;;;;2.25;77.13;102342.25;7368928;19;19927;-65
2024/01/07 06:36:38;;;;;;;;;;;;;;;2.24;76.60;102330.19;7371646;19;19994;-65
2024/01/07 06:39:05;;;;;;;;;;;;;;;2.21;76.84;102335.22;7371613;19;20026;-67
2024/01/07 06:41:30;;;;;;;;;;;;;;;2.20;76.73;102341.19;7364352;19;20282;-65
2024/01/07 06:43:56;;;;;;;;;;;;;;;2.18;76.65;102340.28;7372606;19;19930;-65
2024/01/07 06:46:22;;;;;;;;;;;;;;;2.17;76.71;102337.63;7363776;19;20458;-64
2024/01/07 06:48:47;;;;;;;;;;;;;;;2.14;76.59;102340.09;7368337;19;19915;-65
2024/01/07 06:51:14;;;;;;;;;;;;;;;2.12;76.73;102339.13;7365320;19;19936;-65
2024/01/07 06:53:39;;;;;;;;;;;;;;;2.09;76.48;102352.81;7368537;19;19918;-65
2024/01/07 06:56:04;;;;;;;;;;;;;;;2.07;76.64;102357.00;7367462;19;19919;-65
2024/01/07 06:58:30;;;;;;;;;;;;;;;2.06;76.64;102362.97;7367564;19;19919;-65
2024/01/07 07:00:55;;;;;;;;;;;;;;;2.03;76.86;102360.31;7369489;19;19934;-64
2024/01/07 07:03:21;;;;;;;;;;;;;;;2.01;76.35;102364.50;7373339;19;19911;-65
2024/01/07 07:05:46;;;;;;;;;;;;;;;1.99;76.60;102373.88;7368152;19;20560;-65
2024/01/07 07:08:11;;;;;;;;;;;;;;;1.95;76.30;102366.84;7372161;19;20314;-64
2024/01/07 07:10:37;;;;;;;;;;;;;;;1.93;76.55;102364.22;7370416;19;19928;-64
2024/01/07 07:13:02;;;;;;;;;;;;;;;1.90;76.32;102364.09;7370030;19;19919;-64
2024/01/07 07:15:28;;;;;;;;;;;;;;;1.88;76.30;102382.88;7372252;19;19930;-65
2024/01/07 07:17:53;;;;;;;;;;;;;;;1.85;76.22;102378.47;7371661;19;19927;-64
2024/01/07 07:20:19;;;;;;;;;;;;;;;1.83;76.33;102381.84;7373107;19;20427;-64
2024/01/07 07:22:44;;;;;;;;;;;;;;;1.79;76.20;102385.97;7373266;19;20286;-65
2024/01/07 07:25:10;;;;;;;;;;;;;;;1.76;76.17;102390.97;7370432;19;20631;-64
2024/01/07 07:27:35;;;;;;;;;;;;;;;1.73;76.48;102396.03;7373774;19;19934;-64
2024/01/07 07:30:00;;;;;;;;;;;;;;;1.70;76.57;102399.34;7369042;19;19919;-64
2024/01/07 07:32:25;;;;;;;;;;;;;;;1.68;76.27;102402.69;7369603;19;19927;-64
2024/01/07 07:34:51;;;;;;;;;;;;;;;1.64;76.44;102401.66;7369885;19;19953;-64
2024/01/07 07:37:16;;;;;;;;;;;;;;;1.61;76.49;102401.53;7370383;19;19932;-65
2024/01/07 07:39:41;;;;;;;;;;;;;;;1.59;76.46;102402.31;7374226;19;19915;-65
2024/01/07 07:42:06;;;;;;;;;;;;;;;1.56;76.58;102400.47;7371524;19;19929;-64
2024/01/07 07:44:32;;;;;;;;;;;;;;;1.53;76.32;102414.09;7366893;19;19915;-65
2024/01/07 07:46:57;;;;;;;;;;;;;;;1.51;76.22;102414.84;7369057;19;20258;-64
2024/01/07 07:49:22;;;;;;;;;;;;;;;1.48;76.37;102412.16;7368004;19;19933;-64
2024/01/07 07:51:47;;;;;;;;;;;;;;;1.45;76.32;102417.16;7367145;19;19927;-64
2024/01/07 07:54:13;;;;;;;;;;;;;;;1.42;75.94;102412.78;7369144;19;19954;-65
2024/01/07 07:56:38;;;;;;;;;;;;;;;1.41;75.87;102418.72;7363828;19;20588;-65
2024/01/07 07:59:03;;;;;;;;;;;;;;;1.37;75.96;102421.09;7369549;19;19926;-64
2024/01/07 08:01:29;;;;;;;;;;;;;;;1.35;75.74;102435.63;7365555;19;20018;-65
2024/01/07 08:03:54;;;;;;;;;;;;;;;1.32;75.75;102438.03;7364991;19;19925;-65
2024/01/07 08:06:19;;;;;;;;;;;;;;;1.28;75.70;102437.06;7365783;19;19923;-64
2024/01/07 08:08:45;;;;;;;;;;;;;;;1.24;75.80;102451.47;7364460;19;20265;-64
2024/01/07 08:11:10;;;;;;;;;;;;;;;1.19;75.93;102441.78;7364369;19;20425;-64
2024/01/07 08:13:36;;;;;;;;;;;;;;;1.15;75.64;102439.91;7372437;19;19923;-65
2024/01/07 08:16:01;;;;;;;;;;;;;;;1.13;76.00;102445.00;7371464;19;19926;-64
2024/01/07 08:18:26;;;;;;;;;;;;;;;1.10;76.12;102447.41;7371315;19;20323;-64
2024/01/07 08:20:52;;;;;;;;;;;;;;;1.08;76.08;102443.91;7371982;19;19923;-63
2024/01/07 08:23:17;;;;;;;;;;;;;;;1.06;75.88;102445.50;7368409;19;19944;-65
2024/01/07 08:25:42;;;;;;;;;;;;;;;1.03;75.72;102445.41;7375883;19;19923;-64
2024/01/07 08:28:07;;;;;;;;;;;;;;;1.01;75.75;102452.16;7370067;19;19914;-64
2024/01/07 08:30:33;;;;;;;;;;;;;;;1.00;76.18;102455.53;7372183;19;19937;-64
2024/01/07 08:32:58;;;;;;;;;;;;;;;0.98;75.79;102458.06;7363263;19;20295;-64
2024/01/07 08:35:23;;;;;;;;;;;;;;;0.96;76.04;102451.97;7372923;19;19955;-64
2024/01/07 08:37:49;;;;;;;;;;;;;;;0.95;75.86;102452.75;7372614;19;19915;-63
2024/01/07 08:40:14;;;;;;;;;;;;;;;0.95;76.13;102460.47;7368741;19;20002;-64
2024/01/07 08:42:40;;;;;;;;;;;;;;;0.95;75.87;102468.19;7375883;19;19915;-64
2024/01/07 08:45:05;;;;;;;;;;;;;;;0.94;75.93;102465.56;7379356;19;19927;-64
2024/01/07 08:47:31;;;;;;;;;;;;;;;0.94;75.81;102475.84;7373599;19;19914;-64
2024/01/07 08:49:56;;;;;;;;;;;;;;;0.92;75.89;102467.19;7376006;19;19947;-63
2024/01/07 08:52:22;;;;;;;;;;;;;;;0.91;75.96;102471.47;7377229;19;19919;-64
2024/01/07 08:54:47;;;;;;;;;;;;;;;0.90;75.75;102476.50;7371825;19;20672;-63
2024/01/07 08:57:12;;;;;;;;;;;;;;;0.88;76.32;102481.59;7378156;19;19922;-64
2024/01/07 08:59:38;;;;;;;;;;;;;;;0.88;76.18;102480.72;7369430;19;19928;-64
2024/01/07 09:02:03;;;;;;;;;;;;;;;0.87;76.07;102477.28;7375140;19;20298;-63
2024/01/07 09:04:28;;;;;;;;;;;;;;;0.87;76.08;102479.84;7374536;19;20453;-64
2024/01/07 09:06:53;;;;;;;;;;;;;;;0.86;76.29;102482.31;7377692;19;19923;-64
2024/01/07 09:09:19;;;;;;;;;;;;;;;0.86;76.18;102484.91;7375413;19;19938;-65
2024/01/07 09:11:44;;;;;;;;;;;;;;;0.86;76.18;102482.31;7376361;19;19923;-64
2024/01/07 09:14:09;;;;;;;;;;;;;;;0.86;76.43;102487.47;7376879;19;20348;-63
2024/01/07 09:16:34;;;;;;;;;;;;;;;0.86;76.51;102487.47;7376827;19;20264;-64
2024/01/07 09:19:00;;;;;;;;;;;;;;;0.87;76.53;102496.97;7371566;19;19915;-63
2024/01/07 09:21:25;;;;;;;;;;;;;;;0.86;76.37;102488.34;7374160;19;20732;-63
2024/01/07 09:23:50;;;;;;;;;;;;;;;0.86;76.29;102495.19;7376168;19;19926;-63
2024/01/07 09:26:16;;;;;;;;;;;;;;;0.86;76.39;102492.59;7375695;19;19982;-64
2024/01/07 09:28:42;;;;;;;;;;;;;;;0.87;76.35;102494.41;7377872;19;20260;-64
2024/01/07 09:31:08;;;;;;;;;;;;;;;0.89;76.67;102497.91;7375366;19;19925;-64
2024/01/07 09:33:33;;;;;;;;;;;;;;;0.90;76.54;102505.69;7369905;19;20515;-64
2024/01/07 09:35:58;;;;;;;;;;;;;;;0.90;76.65;102495.41;7374105;19;19914;-63
2024/01/07 09:38:25;;;;;;;;;;;;;;;0.93;76.45;102500.69;7374061;19;19994;-63
2024/01/07 09:40:50;;;;;;;;;;;;;;;0.95;76.78;102503.31;7375554;19;19929;-62
2024/01/07 09:43:16;;;;;;;;;;;;;;;0.96;76.99;102500.84;7373678;19;20529;-64
2024/01/07 09:45:44;;;;;;;;;;;;;;;0.99;76.79;102502.66;7373844;19;19944;-63
2024/01/07 09:48:09;;;;;;;;;;;;;;;1.01;77.05;102509.66;7373313;19;19915;-64
2024/01/07 09:50:34;;;;;;;;;;;;;;;1.05;77.06;102510.66;7373478;19;19915;-64
2024/01/07 09:53:02;;;;;;;;;;;;;;;1.08;77.24;102512.50;7369301;19;19922;-63
2024/01/07 09:55:30;;;;;;;;;;;;;;;1.09;77.29;102517.69;7372097;19;20323;-64
2024/01/07 09:57:56;;;;;;;;;;;;;;;1.12;77.10;102507.56;7366985;19;19935;-64
2024/01/07 10:00:21;;;;;;;;;;;;;;;1.16;77.42;102513.69;7372540;19;19923;-64
2024/01/07 10:02:46;;;;;;;;;;;;;;;1.21;77.30;102517.34;7370695;19;21202;-64
2024/01/07 10:05:11;;;;;;;;;;;;;;;1.26;77.24;102516.75;7369238;19;19914;-64
2024/01/07 10:07:37;;;;;;;;;;;;;;;1.34;77.56;102518.78;7369083;19;20735;-63
2024/01/07 10:10:31;;;;;;;;;;;;;;;1.44;77.35;102526.09;7368858;19;20024;-63
2024/01/07 10:12:57;;;;;;;;;;;;;;;1.57;77.93;102523.22;7365054;19;20547;-65
2024/01/07 10:15:23;;;;;;;;;;;;;;;1.71;77.54;102527.28;7367419;19;19939;-64
2024/01/07 10:17:48;;;;;;;;;;;;;;;1.84;78.13;102527.81;7372055;19;20245;-64
2024/01/07 10:20:13;;;;;;;;;;;;;;;2.00;77.80;102530.22;7375638;19;19915;-64
2024/01/07 10:22:39;;;;;;;;;;;;;;;2.17;77.95;102539.50;7375483;19;20488;-65
2024/01/07 10:25:05;;;;;;;;;;;;;;;2.40;78.11;102531.84;7369561;19;19914;-65
2024/01/07 10:27:33;;;;;;;;;;;;;;;2.63;78.72;102538.78;7368363;19;19918;-66
2024/01/07 10:29:58;;;;;;;;;;;;;;;2.86;78.37;102537.97;7368412;19;19918;-65
2024/01/07 10:32:24;;;;;;;;;;;;;;;3.13;78.89;102539.84;7366945;19;20625;-66
2024/01/07 10:34:52;;;;;;;;;;;;;;;3.41;78.86;102548.63;7363351;19;19918;-65
2024/01/07 10:37:17;;;;;;;;;;;;;;;3.66;78.53;102551.25;7367162;19;19999;-66
2024/01/07 10:39:42;;;;;;;;;;;;;;;3.91;78.40;102545.22;7374841;19;19967;-65
2024/01/07 10:42:09;;;;;;;;;;;;;;;4.18;78.26;102545.25;7363734;19;19944;-66
2024/01/07 10:44:35;;;;;;;;;;;;;;;4.45;77.95;102549.56;7371843;19;19934;-66
2024/01/07 10:47:06;;;;;;;;;;;;;;;4.71;77.66;102548.69;7375474;19;19919;-66
2024/01/07 10:49:31;;;;;;;;;;;;;;;4.99;77.41;102554.72;7375751;19;20615;-66
2024/01/07 10:51:57;;;;;;;;;;;;;;;5.25;76.79;102553.75;7361462;19;19911;-66
2024/01/07 10:54:24;;;;;;;;;;;;;;;5.52;76.76;102547.59;7346338;19;19982;-66
2024/01/07 10:56:50;;;;;;;;;;;;;;;5.76;76.29;102548.25;7363057;19;19915;-66
2024/01/07 10:59:16;;;;;;;;;;;;;;;6.06;76.30;102550.81;7368061;19;20356;-66
2024/01/07 11:01:41;;;;;;;;;;;;;;;6.30;76.12;102550.56;7363142;19;20384;-66
2024/01/07 11:04:21;;;;;;;;;;;;;;;6.57;75.81;102558.13;7363388;19;19919;-67
2024/01/07 11:06:52;;;;;;;;;;;;;;;6.83;75.65;102560.44;7365749;19;20480;-66
2024/01/07 11:09:31;;;;;;;;;;;;;;;7.08;75.46;102557.53;7365132;19;20628;-67
2024/01/07 11:11:58;;;;;;;;;;;;;;;7.34;75.16;102555.47;7347092;19;19925;-66
2024/01/07 11:14:51;;;;;;;;;;;;;;;7.58;74.98;102559.41;7367794;19;20257;-66
2024/01/07 11:17:36;;;;;;;;;;;;;;;7.85;74.41;102554.72;7363523;19;20070;-66
2024/01/07 11:20:05;;;;;;;;;;;;;;;8.12;74.34;102551.75;7359945;19;19915;-67
2024/01/07 11:22:31;;;;;;;;;;;;;;;8.37;74.70;102555.69;7367454;19;19923;-67
2024/01/07 11:24:57;;;;;;;;;;;;;;;8.61;74.50;102559.50;7362789;19;19911;-66
2024/01/07 11:27:22;;;;;;;;;;;;;;;8.82;73.59;102560.72;7366867;19;19936;-66
2024/01/07 11:30:01;;;;;;;;;;;;;;;9.03;73.84;102554.91;7362115;19;19930;-67
2024/01/07 11:32:29;;;;;;;;;;;;;;;9.27;74.00;102554.31;7362024;19;19951;-67
2024/01/07 11:34:56;;;;;;;;;;;;;;;9.46;73.32;102559.78;7365122;19;19960;-66
2024/01/07 11:37:22;;;;;;;;;;;;;;;9.65;73.36;102547.81;7364097;19;20375;-66
2024/01/07 11:39:48;;;;;;;;;;;;;;;9.83;72.87;102545.38;7370666;19;19982;-67
2024/01/07 11:42:13;;;;;;;;;;;;;;;10.02;72.60;102547.31;7369026;19;19915;-67
2024/01/07 11:44:46;;;;;;;;;;;;;;;10.22;72.71;102549.22;7366504;19;20224;-67
2024/01/07 11:47:11;;;;;;;;;;;;;;;10.43;72.19;102549.44;7367362;19;19927;-67
2024/01/07 11:49:36;;;;;;;;;;;;;;;10.63;71.89;102547.84;7376031;19;20020;-67
2024/01/07 11:52:04;;;;;;;;;;;;;;;10.86;71.98;102557.56;7368964;19;20592;-66
2024/01/07 11:54:29;;;;;;;;;;;;;;;11.08;71.77;102551.56;7373952;19;19934;-66
2024/01/07 11:56:54;;;;;;;;;;;;;;;11.32;71.45;102557.78;7368776;19;19911;-67
2024/01/07 11:59:20;;;;;;;;;;;;;;;11.53;71.40;102555.25;7371990;19;20699;-68
2024/01/07 12:01:45;;;;;;;;;;;;;;;11.77;70.92;102554.44;7363611;19;19934;-67
2024/01/07 12:04:12;;;;;;;;;;;;;;;11.97;70.81;102551.91;7371143;19;19926;-67
2024/01/07 12:06:38;;;;;;;;;;;;;;;12.18;70.86;102554.53;7372397;19;19939;-67
2024/01/07 12:09:03;;;;;;;;;;;;;;;12.37;70.50;102551.91;7365077;19;19918;-67
2024/01/07 12:11:28;;;;;;;;;;;;;;;12.56;70.48;102558.84;7368771;19;19923;-67
2024/01/07 12:13:54;;;;;;;;;;;;;;;12.72;70.60;102549.22;7363568;19;19922;-67
2024/01/07 12:16:20;;;;;;;;;;;;;;;12.89;70.24;102546.56;7367316;19;19927;-66
2024/01/07 12:18:46;;;;;;;;;;;;;;;13.03;70.62;102550.03;7371283;19;19932;-66
2024/01/07 12:21:11;;;;;;;;;;;;;;;13.18;71.06;102552.59;7370624;19;19932;-67
2024/01/07 12:23:37;;;;;;;;;;;;;;;13.30;70.16;102553.47;7372587;19;19923;-67
2024/01/07 12:26:11;;;;;;;;;;;;;;;13.39;69.61;102551.66;7369922;19;19923;-67
2024/01/07 12:28:39;;;;;;;;;;;;;;;13.50;69.00;102549.00;7376582;19;19915;-67
2024/01/07 12:31:05;;;;;;;;;;;;;;;13.53;68.86;102541.06;7369550;19;19982;-67
2024/01/07 12:33:31;;;;;;;;;;;;;;;13.48;68.28;102555.97;7369154;19;19997;-66
2024/01/07 12:35:57;;;;;;;;;;;;;;;13.33;68.23;102543.84;7375551;19;20317;-66
2024/01/07 12:38:26;;;;;;;;;;;;;;;13.13;67.76;102541.25;7371225;19;20553;-67